Carlisle, Washington
Current Conditions -  °F | °C
As of 7:11 PM on Tuesday 21 Oct 2014 (Local Time) from KHQM Reporting Station
Moderate Rain Moderate Rain  
Wind Chill: 14°   Ceiling: 2200
Heat Index: 14°   Visibility: 1.7mi
Dew Point: 13°   Wind: 24mph
Humidity: 93%   Direction: 140°SE
Pressure: 29.81"   Gusts: 32mph
Location:  47.1425°N, 124.097°W
Report Text: KHQM 220211Z AUTO 14021G28KT 1 3/4SM RA BR SCT014 BKN022 OVC035 14/13 A2981 RMK AO2 PK WND 15029/0158 P0004 T01390128
Loading
Personal Weather Stations






























Interactive Weather Map
Tropical Storm Tracking
New forecast layout! Learn more

10-Day Weather Forecast

Advertisements
Track Severe Weather on mobile